Time;durP1;ratioP1;P1;durP2;ratioP2;P2;SDS_P1;SDS_P2;PMS_P1;PMS_P2;Temp;Humidity;BMP_temperature;BMP_pressure;BME280_temperature;BME280_humidity;BME280_pressure;Samples;Min_cycle;Max_cycle;Signal;HPM_P1;HPM_P2
2023/10/26 00:00:25;;;;;;;106.20;44.07;;;10.10;99.90;;;;;;6036966;23;20702;-91
2023/10/26 00:02:52;;;;;;;101.47;41.80;;;9.90;99.90;;;;;;6012485;23;20753;-92
2023/10/26 00:05:18;;;;;;;107.38;42.33;;;9.90;99.90;;;;;;6013084;23;20924;-89
2023/10/26 00:07:43;;;;;;;120.18;46.60;;;9.60;99.90;;;;;;6060271;23;20383;-91
2023/10/26 00:10:09;;;;;;;148.13;51.03;;;10.10;99.90;;;;;;6036590;23;20384;-91
2023/10/26 00:12:35;;;;;;;175.30;53.97;;;10.50;99.90;;;;;;6038540;23;20433;-92
2023/10/26 00:15:01;;;;;;;157.93;51.08;;;10.00;99.90;;;;;;6065257;23;20872;-91
2023/10/26 00:17:27;;;;;;;148.88;50.65;;;10.00;99.90;;;;;;6064909;23;20393;-91
2023/10/26 00:19:52;;;;;;;203.23;57.08;;;9.90;99.90;;;;;;6089179;23;20394;-91
2023/10/26 00:22:19;;;;;;;176.65;53.92;;;9.90;99.90;;;;;;6065106;23;20378;-91
2023/10/26 00:24:45;;;;;;;164.03;52.90;;;9.80;99.90;;;;;;6064579;23;20480;-91
2023/10/26 00:27:10;;;;;;;134.17;50.90;;;9.70;99.90;;;;;;6042153;23;20414;-91
2023/10/26 00:29:36;;;;;;;227.07;54.35;;;9.80;99.90;;;;;;6064278;23;20391;-91
2023/10/26 00:32:04;;;;;;;170.40;50.30;;;10.20;99.90;;;;;;6066510;23;20378;-91
2023/10/26 00:34:30;;;;;;;157.57;48.88;;;9.70;99.90;;;;;;6066535;23;20406;-91
2023/10/26 00:36:55;;;;;;;149.27;47.65;;;9.70;99.90;;;;;;6066844;23;20418;-91
2023/10/26 00:39:21;;;;;;;123.97;45.78;;;9.60;99.90;;;;;;6067254;23;20369;-91
2023/10/26 00:41:50;;;;;;;403.97;61.43;;;9.70;99.90;;;;;;6066671;23;20386;-90
2023/10/26 00:44:16;;;;;;;347.27;60.35;;;10.10;99.90;;;;;;6066856;23;20448;-92
2023/10/26 00:46:42;;;;;;;427.73;66.40;;;9.70;99.90;;;;;;6066520;23;20378;-92
2023/10/26 00:49:10;;;;;;;516.90;66.47;;;9.80;99.90;;;;;;6066826;23;20385;-90
2023/10/26 00:51:36;;;;;;;836.60;72.07;;;9.70;99.90;;;;;;6066657;23;20475;-91
2023/10/26 00:54:03;;;;;;;841.33;79.72;;;9.60;99.90;;;;;;6066885;23;20418;-92
2023/10/26 00:56:29;;;;;;;249.50;50.30;;;9.40;99.90;;;;;;6066228;23;20374;-91
2023/10/26 00:58:57;;;;;;;260.15;52.90;;;9.20;99.90;;;;;;6042232;23;20397;-91
2023/10/26 01:01:23;;;;;;;703.30;77.47;;;9.40;99.90;;;;;;6066226;23;20377;-91
2023/10/26 01:03:50;;;;;;;347.80;50.15;;;9.30;99.90;;;;;;6064722;23;20395;-91
2023/10/26 01:06:15;;;;;;;430.83;55.70;;;9.90;99.90;;;;;;6065911;23;20375;-92
2023/10/26 01:08:41;;;;;;;294.47;43.40;;;9.60;99.90;;;;;;6041365;23;20382;-92
2023/10/26 01:11:07;;;;;;;585.85;57.53;;;9.40;99.90;;;;;;6066190;23;20386;-92
2023/10/26 01:13:33;;;;;;;184.13;41.40;;;9.10;99.90;;;;;;6066390;23;20386;-91
2023/10/26 01:15:59;;;;;;;206.60;42.15;;;9.10;99.90;;;;;;6066262;23;20378;-91
2023/10/26 01:18:25;;;;;;;470.80;55.83;;;8.90;99.90;;;;;;6067308;23;20744;-91
2023/10/26 01:20:50;;;;;;;912.03;72.90;;;8.70;99.90;;;;;;6065940;23;20455;-92
2023/10/26 01:23:16;;;;;;;506.43;50.07;;;9.10;99.90;;;;;;6066765;23;20409;-91
2023/10/26 01:25:46;;;;;;;691.45;58.00;;;9.10;99.90;;;;;;6066154;23;20455;-92
2023/10/26 01:28:12;;;;;;;571.10;48.47;;;9.20;99.90;;;;;;6090980;23;20375;-92
2023/10/26 01:30:40;;;;;;;398.25;42.92;;;9.00;99.90;;;;;;6066580;23;20407;-91
2023/10/26 01:33:06;;;;;;;181.25;33.00;;;9.70;99.90;;;;;;6066547;23;20886;-91
2023/10/26 01:35:38;;;;;;;145.93;34.70;;;9.10;99.90;;;;;;6066653;23;20382;-90
2023/10/26 01:38:04;;;;;;;213.27;36.55;;;9.00;99.90;;;;;;6065561;23;20394;-91
2023/10/26 01:40:30;;;;;;;319.58;42.40;;;8.90;99.90;;;;;;6067135;23;21176;-93
2023/10/26 01:42:55;;;;;;;347.52;42.45;;;9.30;99.90;;;;;;6065169;23;20409;-91
2023/10/26 01:45:21;;;;;;;394.53;38.97;;;9.10;99.90;;;;;;6067044;23;20381;-92
2023/10/26 01:47:47;;;;;;;420.90;39.87;;;8.70;99.90;;;;;;6066148;23;20461;-91
2023/10/26 01:50:12;;;;;;;211.70;38.70;;;9.00;99.90;;;;;;6066450;23;20406;-91
2023/10/26 01:52:38;;;;;;;111.53;35.90;;;8.70;99.90;;;;;;6066160;23;20387;-91
2023/10/26 01:55:04;;;;;;;608.20;57.60;;;8.50;99.90;;;;;;6066025;23;20429;-91
2023/10/26 01:57:30;;;;;;;401.33;44.20;;;8.60;99.90;;;;;;6067504;23;20446;-94
2023/10/26 01:59:56;;;;;;;306.90;41.88;;;8.70;99.90;;;;;;6065830;23;20383;-92
2023/10/26 02:02:22;;;;;;;421.05;49.63;;;8.90;99.90;;;;;;6090674;23;20761;-91
2023/10/26 02:04:47;;;;;;;165.90;39.58;;;8.40;99.90;;;;;;6065565;23;20458;-91
2023/10/26 02:07:13;;;;;;;155.73;39.92;;;8.60;99.90;;;;;;6066291;23;20414;-91
2023/10/26 02:09:39;;;;;;;347.60;43.47;;;9.40;99.90;;;;;;6065975;23;20394;-90
2023/10/26 02:12:05;;;;;;;511.23;56.90;;;9.10;99.90;;;;;;6061217;23;20395;-92
2023/10/26 02:14:30;;;;;;;136.05;44.10;;;8.60;99.90;;;;;;6014287;23;20380;-90
2023/10/26 02:16:56;;;;;;;157.45;46.28;;;9.40;99.90;;;;;;6013533;23;20449;-90
2023/10/26 02:19:22;;;;;;;245.70;49.57;;;9.20;99.90;;;;;;6014614;23;20471;-90
2023/10/26 02:21:47;;;;;;;197.95;48.28;;;8.90;99.90;;;;;;6012731;23;20916;-91
2023/10/26 02:24:13;;;;;;;158.15;44.10;;;8.70;99.90;;;;;;6013983;23;20411;-92
2023/10/26 02:26:39;;;;;;;119.50;42.43;;;8.70;99.90;;;;;;6013480;23;20427;-91
2023/10/26 02:29:04;;;;;;;115.10;42.58;;;8.80;99.90;;;;;;6014163;23;20430;-91
2023/10/26 02:31:30;;;;;;;374.58;65.95;;;8.80;99.90;;;;;;6013558;23;20392;-90
2023/10/26 02:33:56;;;;;;;783.83;82.63;;;9.10;99.90;;;;;;6084848;23;20391;-92
2023/10/26 02:36:22;;;;;;;664.00;77.13;;;9.00;99.90;;;;;;6014191;23;20395;-90
2023/10/26 02:38:47;;;;;;;181.48;55.00;;;9.20;99.90;;;;;;6013644;23;20376;-92
2023/10/26 02:41:13;;;;;;;179.27;53.38;;;9.10;99.90;;;;;;6061477;23;20372;-91
2023/10/26 02:43:39;;;;;;;176.07;54.00;;;9.10;99.90;;;;;;6013224;23;20408;-91
2023/10/26 02:46:05;;;;;;;481.03;69.00;;;9.50;99.90;;;;;;6061527;23;20384;-92
2023/10/26 02:48:31;;;;;;;196.50;55.95;;;8.80;99.90;;;;;;6013674;23;20867;-91
2023/10/26 02:50:57;;;;;;;351.98;62.30;;;9.10;99.90;;;;;;6085214;23;20881;-91
2023/10/26 02:53:22;;;;;;;344.10;61.60;;;9.10;99.90;;;;;;6060961;23;20388;-91
2023/10/26 02:55:48;;;;;;;236.88;52.83;;;8.80;99.90;;;;;;6060503;23;20384;-90
2023/10/26 02:58:14;;;;;;;640.90;69.47;;;9.10;99.90;;;;;;6014604;23;20458;-90
2023/10/26 03:00:39;;;;;;;562.67;61.97;;;8.90;99.90;;;;;;6036583;23;20376;-91
2023/10/26 03:03:05;;;;;;;410.45;58.03;;;8.90;99.90;;;;;;6013441;23;20410;-91
2023/10/26 03:05:33;;;;;;;250.17;51.53;;;8.90;99.90;;;;;;6037052;23;20384;-91
2023/10/26 03:07:59;;;;;;;325.33;52.55;;;8.80;99.90;;;;;;6013354;23;20380;-91
2023/10/26 03:10:26;;;;;;;351.40;60.85;;;9.00;99.90;;;;;;6060928;23;20881;-90
2023/10/26 03:12:52;;;;;;;741.58;72.10;;;9.00;99.90;;;;;;6036661;23;20388;-91
2023/10/26 03:15:18;;;;;;;939.70;77.30;;;8.90;99.90;;;;;;6037319;23;20470;-90
2023/10/26 03:17:44;;;;;;;766.58;70.50;;;9.20;99.90;;;;;;6036437;23;20385;-90
2023/10/26 03:20:10;;;;;;;199.13;49.95;;;9.50;99.90;;;;;;6013497;23;20368;-92
2023/10/26 03:22:36;;;;;;;207.55;48.97;;;8.80;99.90;;;;;;6060417;23;20798;-89
2023/10/26 03:25:02;;;;;;;354.27;58.15;;;9.10;99.90;;;;;;6037088;23;20880;-92
2023/10/26 03:27:28;;;;;;;253.15;52.70;;;8.80;99.90;;;;;;6012809;23;20387;-90
2023/10/26 03:29:55;;;;;;;205.63;50.95;;;8.70;99.90;;;;;;6013112;23;20704;-91
2023/10/26 03:32:20;;;;;;;261.58;52.90;;;8.80;99.90;;;;;;6037479;23;20408;-90
2023/10/26 03:34:48;;;;;;;308.58;58.50;;;9.40;99.90;;;;;;6036019;23;20919;-91
2023/10/26 03:37:14;;;;;;;275.60;57.17;;;8.90;99.90;;;;;;6013563;23;20888;-91
2023/10/26 03:39:40;;;;;;;368.77;60.45;;;9.30;99.90;;;;;;6012563;23;20376;-90
2023/10/26 03:42:06;;;;;;;246.98;52.47;;;9.00;99.90;;;;;;6013317;23;20387;-91
2023/10/26 03:44:32;;;;;;;271.58;51.92;;;9.20;99.90;;;;;;6012735;23;20408;-92
2023/10/26 03:46:58;;;;;;;254.60;47.87;;;9.50;99.90;;;;;;6012848;23;20377;-91
2023/10/26 03:49:23;;;;;;;204.63;46.80;;;8.80;99.90;;;;;;6013483;23;20384;-90
2023/10/26 03:51:49;;;;;;;537.55;61.40;;;8.80;99.90;;;;;;6012604;23;20376;-89
2023/10/26 03:54:15;;;;;;;647.00;69.40;;;8.90;99.90;;;;;;6037406;23;20377;-90
2023/10/26 03:56:41;;;;;;;369.60;58.05;;;9.20;99.90;;;;;;6012976;23;20423;-92
2023/10/26 03:59:07;;;;;;;145.63;46.92;;;8.50;99.90;;;;;;6013328;23;20547;-91
2023/10/26 04:01:33;;;;;;;358.30;56.30;;;8.80;99.90;;;;;;6036406;23;20447;-91
2023/10/26 04:03:58;;;;;;;216.03;49.03;;;8.70;99.90;;;;;;6013246;23;20443;-90
2023/10/26 04:06:24;;;;;;;226.85;50.83;;;8.80;99.90;;;;;;6013829;23;20430;-92
2023/10/26 04:08:49;;;;;;;231.40;47.53;;;9.00;99.90;;;;;;6014582;23;20683;-91
2023/10/26 04:11:18;;;;;;;468.23;56.57;;;9.00;99.90;;;;;;6026276;23;20473;-91
2023/10/26 04:13:44;;;;;;;411.88;55.20;;;8.50;99.90;;;;;;6066625;23;20366;-92
2023/10/26 04:16:11;;;;;;;305.45;52.05;;;8.50;99.90;;;;;;6067041;23;20398;-91
2023/10/26 04:18:37;;;;;;;425.80;50.47;;;8.40;99.90;;;;;;6066645;23;20708;-91
2023/10/26 04:21:04;;;;;;;297.30;46.50;;;8.40;99.90;;;;;;6067040;23;20824;-90
2023/10/26 04:23:30;;;;;;;170.23;44.15;;;8.40;99.90;;;;;;6067094;23;20405;-91
2023/10/26 04:25:55;;;;;;;405.40;53.67;;;8.30;99.90;;;;;;6067033;23;20764;-92
2023/10/26 04:28:21;;;;;;;200.07;47.72;;;8.20;99.90;;;;;;6067541;23;20386;-91
2023/10/26 04:30:47;;;;;;;319.85;48.25;;;8.30;99.90;;;;;;6066445;23;20394;-91
2023/10/26 04:33:13;;;;;;;434.10;59.75;;;9.00;99.90;;;;;;6067345;23;20756;-91
2023/10/26 04:35:45;;;;;;;482.30;61.05;;;8.40;99.90;;;;;;6066559;23;20778;-92
2023/10/26 04:38:11;;;;;;;148.35;42.72;;;8.10;99.90;;;;;;6067227;23;20716;-91
2023/10/26 04:40:39;;;;;;;130.48;41.47;;;8.20;99.90;;;;;;6066788;23;20556;-92
2023/10/26 04:43:11;;;;;;;435.75;52.97;;;8.60;99.90;;;;;;6066791;23;20489;-90
2023/10/26 04:45:37;;;;;;;321.70;44.40;;;7.90;99.90;;;;;;6067616;23;20757;-91
2023/10/26 04:48:03;;;;;;;243.20;45.22;;;8.20;99.90;;;;;;6066206;23;20370;-91
2023/10/26 04:50:32;;;;;;;324.73;49.30;;;7.80;99.90;;;;;;6067215;23;20462;-91
2023/10/26 04:52:59;;;;;;;218.05;46.08;;;7.90;99.90;;;;;;6065743;23;20374;-91
2023/10/26 04:55:30;;;;;;;275.00;46.37;;;8.20;99.90;;;;;;6067072;23;20375;-91
2023/10/26 04:57:56;;;;;;;685.58;62.72;;;7.80;99.90;;;;;;6066740;23;20871;-94
2023/10/26 05:00:21;;;;;;;459.77;55.45;;;8.10;99.90;;;;;;6066227;23;20417;-91
2023/10/26 05:02:47;;;;;;;415.33;50.33;;;8.10;99.90;;;;;;6067384;23;20394;-91
2023/10/26 05:05:13;;;;;;;567.30;60.23;;;7.90;99.90;;;;;;6066192;23;20371;-91
2023/10/26 05:07:39;;;;;;;463.33;52.70;;;7.70;99.90;;;;;;6067284;23;20764;-91
2023/10/26 05:10:05;;;;;;;278.30;48.15;;;7.80;99.90;;;;;;6066260;23;20363;-91
2023/10/26 05:12:31;;;;;;;255.70;44.53;;;7.50;99.90;;;;;;6066740;23;20401;-91
2023/10/26 05:14:57;;;;;;;255.73;44.45;;;7.70;99.90;;;;;;6066702;23;20379;-90
2023/10/26 05:17:22;;;;;;;245.40;44.85;;;8.00;99.90;;;;;;6066742;23;20378;-91
2023/10/26 05:19:48;;;;;;;327.50;50.22;;;7.40;99.90;;;;;;6066659;23;20375;-91
2023/10/26 05:22:14;;;;;;;288.70;46.83;;;7.70;99.90;;;;;;6066346;23;20806;-91
2023/10/26 05:24:42;;;;;;;293.33;46.83;;;7.60;99.90;;;;;;6067679;23;20409;-91
2023/10/26 05:27:07;;;;;;;240.50;42.88;;;8.00;99.90;;;;;;6066397;23;20387;-90
2023/10/26 05:29:33;;;;;;;534.47;59.30;;;7.60;99.90;;;;;;6067262;23;20376;-92
2023/10/26 05:31:58;;;;;;;292.97;47.67;;;7.60;99.90;;;;;;6066236;23;20398;-92
2023/10/26 05:34:24;;;;;;;265.05;45.47;;;7.70;99.90;;;;;;6066064;23;20371;-91
2023/10/26 05:36:50;;;;;;;291.20;44.28;;;7.70;99.90;;;;;;6066422;23;20377;-91
2023/10/26 05:39:15;;;;;;;350.90;47.83;;;8.10;99.90;;;;;;6065910;23;20374;-92
2023/10/26 05:41:42;;;;;;;218.63;42.28;;;7.70;99.90;;;;;;6066867;23;20389;-91
2023/10/26 05:44:07;;;;;;;243.93;41.80;;;7.70;99.90;;;;;;6065317;23;20443;-90
2023/10/26 05:46:34;;;;;;;225.38;41.47;;;8.10;99.90;;;;;;6066682;23;21209;-91
2023/10/26 05:48:59;;;;;;;304.45;48.80;;;7.90;99.90;;;;;;6066358;23;20379;-92
2023/10/26 05:51:25;;;;;;;308.58;48.35;;;7.80;99.90;;;;;;6066627;23;20462;-91
2023/10/26 05:53:51;;;;;;;332.85;50.40;;;8.00;99.90;;;;;;6065718;23;20386;-92
2023/10/26 05:56:16;;;;;;;270.30;43.80;;;7.80;99.90;;;;;;6066270;23;20381;-91
2023/10/26 05:58:43;;;;;;;246.03;44.13;;;7.90;99.90;;;;;;6065564;23;20449;-92
2023/10/26 06:01:09;;;;;;;554.70;58.83;;;8.00;99.90;;;;;;6066251;23;20528;-92
2023/10/26 06:03:35;;;;;;;178.82;38.95;;;7.70;99.90;;;;;;6066150;23;20402;-93
2023/10/26 06:06:02;;;;;;;128.80;37.05;;;7.80;99.90;;;;;;6065450;23;20457;-90
2023/10/26 06:08:29;;;;;;;155.27;37.75;;;8.00;99.90;;;;;;6066180;23;20377;-92
2023/10/26 06:10:55;;;;;;;300.27;46.17;;;7.80;99.90;;;;;;6060955;23;20447;-92
2023/10/26 06:13:20;;;;;;;231.27;41.33;;;7.90;99.90;;;;;;6013785;23;20904;-91
2023/10/26 06:15:46;;;;;;;168.90;39.20;;;7.90;99.90;;;;;;6060377;23;20392;-92
2023/10/26 06:18:12;;;;;;;465.85;54.28;;;7.80;99.90;;;;;;6013880;23;20746;-92
2023/10/26 06:20:38;;;;;;;244.57;43.60;;;8.10;99.90;;;;;;6062191;23;20372;-93
2023/10/26 06:23:04;;;;;;;217.85;42.38;;;7.70;99.90;;;;;;6060898;23;20404;-91
2023/10/26 06:25:38;;;;;;;253.57;43.15;;;7.60;99.90;;;;;;6060535;23;20766;-91
2023/10/26 06:28:04;;;;;;;377.73;47.97;;;7.70;99.90;;;;;;6059863;23;20380;-91
2023/10/26 06:30:31;;;;;;;252.57;43.13;;;7.80;99.90;;;;;;6012454;23;20399;-91
2023/10/26 06:32:59;;;;;;;74.82;31.95;;;7.80;99.90;;;;;;6012694;23;20372;-91
2023/10/26 06:35:25;;;;;;;198.75;41.20;;;8.60;99.90;;;;;;6061013;23;20407;-93
2023/10/26 06:37:50;;;;;;;137.07;36.47;;;7.30;99.90;;;;;;6013647;23;20722;-92
2023/10/26 06:40:16;;;;;;;261.33;46.07;;;7.80;99.90;;;;;;6013243;23;20412;-92
2023/10/26 06:42:42;;;;;;;349.48;48.08;;;7.60;99.90;;;;;;6061470;23;20391;-92
2023/10/26 06:45:08;;;;;;;132.93;35.85;;;7.80;99.90;;;;;;6060224;23;20853;-91
2023/10/26 06:47:34;;;;;;;335.42;46.70;;;7.60;99.90;;;;;;6061489;23;20380;-93
2023/10/26 06:49:59;;;;;;;131.57;36.67;;;7.60;99.90;;;;;;6012983;23;20463;-92
2023/10/26 06:52:25;;;;;;;276.83;44.27;;;7.70;99.90;;;;;;6061097;23;20406;-92
2023/10/26 06:54:51;;;;;;;361.70;49.15;;;7.70;99.90;;;;;;6013609;23;20408;-92
2023/10/26 06:57:16;;;;;;;422.92;53.47;;;7.70;99.90;;;;;;6013419;23;20857;-93
2023/10/26 06:59:43;;;;;;;266.37;46.97;;;7.80;99.90;;;;;;6013888;23;20376;-92
2023/10/26 07:02:10;;;;;;;287.85;45.35;;;8.30;99.90;;;;;;6059440;23;20383;-93
2023/10/26 07:04:36;;;;;;;326.00;47.78;;;8.10;99.90;;;;;;6060804;23;20768;-92
2023/10/26 07:07:09;;;;;;;433.85;54.70;;;8.30;99.90;;;;;;6059568;23;20380;-95
2023/10/26 07:09:38;;;;;;;489.75;55.00;;;7.90;99.90;;;;;;6060208;23;20376;-94
2023/10/26 07:12:04;;;;;;;276.88;44.85;;;8.20;99.90;;;;;;6011967;23;20383;-94
2023/10/26 07:14:30;;;;;;;402.80;51.55;;;7.90;99.90;;;;;;6036587;23;20427;-93
2023/10/26 07:16:56;;;;;;;438.63;55.72;;;8.00;99.90;;;;;;6036996;23;20379;-92
2023/10/26 07:19:21;;;;;;;569.45;61.03;;;7.60;99.90;;;;;;6036356;23;20466;-93
2023/10/26 07:21:47;;;;;;;609.28;62.55;;;8.30;99.90;;;;;;6037393;23;20373;-92
2023/10/26 07:24:12;;;;;;;430.37;53.50;;;8.00;99.90;;;;;;6036088;23;20904;-92
2023/10/26 07:26:38;;;;;;;310.02;48.15;;;8.20;99.90;;;;;;6036300;23;20392;-92
2023/10/26 07:29:27;;;;;;;567.40;61.40;;;8.30;99.90;;;;;;6036917;23;20777;-95
2023/10/26 07:31:55;;;;;;;594.67;63.03;;;8.20;99.90;;;;;;6034500;23;20444;-95
2023/10/26 07:34:21;;;;;;;332.30;51.10;;;8.30;99.90;;;;;;6038634;23;20384;-94
2023/10/26 07:36:48;;;;;;;301.40;48.63;;;7.90;99.90;;;;;;6039250;23;20383;-93
2023/10/26 07:39:14;;;;;;;588.17;63.13;;;8.30;99.90;;;;;;6039740;23;20380;-94
2023/10/26 07:41:40;;;;;;;512.53;59.37;;;8.40;99.90;;;;;;6040801;23;20380;-95
2023/10/26 07:44:06;;;;;;;362.27;53.53;;;8.60;99.90;;;;;;6038667;23;20400;-95
2023/10/26 07:46:34;;;;;;;346.47;53.60;;;9.20;99.90;;;;;;6069439;23;20387;-95
2023/10/26 08:04:00;;;;;;;247.63;52.03;;;9.00;99.90;;;;;;6225919;23;20391;-95
2023/10/26 08:20:08;;;;;;;328.85;56.30;;;9.40;99.90;;;;;;6221892;23;20399;-95
2023/10/26 08:23:20;;;;;;;294.02;56.15;;;9.20;99.90;;;;;;6188197;23;20459;-95
2023/10/26 08:32:54;;;;;;;;;;;;;;;;;;;;;
2023/10/26 08:36:08;;;;;;;198.60;50.97;;;9.90;99.90;;;;;;6098063;23;20437;-94
2023/10/26 08:38:37;;;;;;;207.18;52.13;;;10.10;99.90;;;;;;6065984;23;20485;-94
2023/10/26 08:41:03;;;;;;;242.23;55.75;;;10.20;99.90;;;;;;6073859;23;20887;-95
2023/10/26 08:43:30;;;;;;;195.55;52.75;;;10.00;99.90;;;;;;6073914;23;20396;-94
2023/10/26 08:45:58;;;;;;;199.13;55.13;;;10.50;99.90;;;;;;6071955;23;20437;-94
2023/10/26 08:48:28;;;;;;;169.93;52.15;;;10.20;99.90;;;;;;6130095;23;20368;-94
2023/10/26 08:50:55;;;;;;;171.45;51.58;;;10.20;99.90;;;;;;6190275;23;20700;-95
2023/10/26 08:53:21;;;;;;;174.23;54.53;;;10.60;99.90;;;;;;6184349;23;20423;-93
2023/10/26 08:55:54;;;;;;;193.07;57.45;;;10.40;99.90;;;;;;6186592;23;20376;-94
2023/10/26 08:58:21;;;;;;;204.30;56.42;;;10.50;99.90;;;;;;6181688;23;20446;-94
2023/10/26 09:00:55;;;;;;;158.87;53.33;;;10.50;99.90;;;;;;6188264;23;20368;-96
2023/10/26 09:03:35;;;;;;;184.95;56.13;;;10.50;99.90;;;;;;6188556;23;20399;-95
2023/10/26 09:06:01;;;;;;;165.35;54.92;;;10.50;99.90;;;;;;6195040;23;20391;-93
2023/10/26 09:09:03;;;;;;;162.75;53.20;;;10.90;99.90;;;;;;6186069;23;20364;-95
2023/10/26 09:11:30;;;;;;;160.90;52.75;;;10.80;99.90;;;;;;6154630;23;20419;-94
2023/10/26 09:14:17;;;;;;;189.18;57.75;;;10.60;99.90;;;;;;6187366;23;20364;-95
2023/10/26 09:16:45;;;;;;;156.27;53.35;;;10.70;99.90;;;;;;6185003;23;20376;-95
2023/10/26 09:19:16;;;;;;;152.77;51.47;;;10.80;99.90;;;;;;6184928;23;20372;-92
2023/10/26 09:21:53;;;;;;;185.35;58.05;;;11.10;99.90;;;;;;6182674;23;20387;-91
2023/10/26 09:24:21;;;;;;;185.48;56.58;;;11.00;99.90;;;;;;6185118;23;20497;-92
2023/10/26 09:26:47;;;;;;;187.40;55.87;;;10.90;99.90;;;;;;6183723;23;20911;-93
2023/10/26 09:29:13;;;;;;;136.05;51.47;;;11.50;99.90;;;;;;6185145;23;20450;-92
2023/10/26 09:31:54;;;;;;;110.97;47.47;;;11.40;99.90;;;;;;6184503;23;20880;-93
2023/10/26 09:34:27;;;;;;;138.52;50.45;;;11.30;99.90;;;;;;6182705;23;20368;-94
2023/10/26 09:37:04;;;;;;;143.40;51.37;;;10.50;99.90;;;;;;6185182;23;20371;-94
2023/10/26 09:39:37;;;;;;;112.07;47.72;;;11.10;99.90;;;;;;6185684;23;20376;-93
2023/10/26 09:42:05;;;;;;;95.80;42.42;;;11.40;99.90;;;;;;6187559;23;20391;-95
2023/10/26 09:44:32;;;;;;;133.65;47.47;;;11.20;99.90;;;;;;6182903;23;20423;-95
2023/10/26 09:47:01;;;;;;;92.10;42.17;;;11.50;99.90;;;;;;6184287;23;20561;-94
2023/10/26 09:49:27;;;;;;;79.30;41.08;;;11.80;99.90;;;;;;6184016;23;20363;-95
2023/10/26 09:51:53;;;;;;;75.43;39.90;;;11.30;99.90;;;;;;6184334;23;20421;-94
2023/10/26 09:54:22;;;;;;;64.97;37.17;;;11.40;99.90;;;;;;6184422;23;20478;-95
2023/10/26 09:56:55;;;;;;;66.03;37.08;;;11.50;99.90;;;;;;6184550;23;20379;-95
2023/10/26 09:59:21;;;;;;;79.37;39.73;;;11.30;99.90;;;;;;6187508;23;20423;-94
2023/10/26 10:01:47;;;;;;;67.55;37.30;;;11.50;99.90;;;;;;6182515;23;20463;-94
2023/10/26 10:04:13;;;;;;;58.78;35.88;;;11.70;99.90;;;;;;6183136;23;20431;-95
2023/10/26 10:06:53;;;;;;;64.80;36.73;;;11.80;99.90;;;;;;6182309;23;20647;-93
2023/10/26 10:09:24;;;;;;;100.22;42.38;;;11.70;99.90;;;;;;6183115;23;20389;-94
2023/10/26 10:12:09;;;;;;;81.63;40.10;;;11.60;99.90;;;;;;6183529;23;20431;-94
2023/10/26 10:14:48;;;;;;;82.00;39.08;;;11.60;99.90;;;;;;6180902;23;20409;-94
2023/10/26 10:17:14;;;;;;;63.88;35.83;;;11.70;99.90;;;;;;6183125;23;20407;-94
2023/10/26 10:19:43;;;;;;;83.82;39.63;;;11.70;99.90;;;;;;6182968;23;20415;-93
2023/10/26 10:22:37;;;;;;;66.70;37.45;;;11.60;99.90;;;;;;6183126;23;20382;-93
2023/10/26 10:25:04;;;;;;;66.60;37.30;;;11.60;99.90;;;;;;6169936;23;20395;-94
2023/10/26 10:27:29;;;;;;;82.55;39.30;;;11.60;99.90;;;;;;6181626;23;20835;-94
2023/10/26 10:30:07;;;;;;;70.15;38.60;;;11.70;99.90;;;;;;6184071;23;20370;-92
2023/10/26 10:32:42;;;;;;;65.72;36.00;;;11.80;99.90;;;;;;6182451;23;20368;-93
2023/10/26 10:35:09;;;;;;;55.30;35.20;;;11.80;99.90;;;;;;6184053;23;20380;-93
2023/10/26 10:37:37;;;;;;;71.85;38.22;;;12.00;99.90;;;;;;6183469;23;20375;-93
2023/10/26 10:40:14;;;;;;;59.58;36.50;;;11.70;99.90;;;;;;6182249;23;20422;-93
2023/10/26 10:42:49;;;;;;;70.82;39.13;;;11.80;99.90;;;;;;6184835;23;20375;-94
2023/10/26 10:45:16;;;;;;;49.70;34.28;;;11.80;99.90;;;;;;6181595;23;20368;-93
2023/10/26 10:47:42;;;;;;;47.88;34.40;;;11.90;99.90;;;;;;6181380;23;20372;-94
2023/10/26 10:50:25;;;;;;;73.70;40.03;;;12.10;99.90;;;;;;6181368;23;20473;-92
2023/10/26 10:52:53;;;;;;;70.47;39.88;;;11.70;99.90;;;;;;6182042;23;20679;-92
2023/10/26 10:55:23;;;;;;;51.20;36.10;;;12.10;99.90;;;;;;6183394;23;20409;-92
2023/10/26 10:58:00;;;;;;;66.25;42.33;;;11.90;99.90;;;;;;6181879;23;20415;-93
2023/10/26 11:00:36;;;;;;;51.03;37.00;;;12.20;99.90;;;;;;6183357;23;20372;-92
2023/10/26 11:03:02;;;;;;;50.33;37.38;;;11.90;99.90;;;;;;6182390;23;20395;-92
2023/10/26 11:05:41;;;;;;;56.05;37.47;;;11.80;99.90;;;;;;6182837;23;20538;-92
2023/10/26 11:08:08;;;;;;;50.50;35.42;;;12.30;99.90;;;;;;6184244;23;20371;-93
2023/10/26 11:10:34;;;;;;;46.75;34.33;;;12.60;99.90;;;;;;6183810;23;20926;-92
2023/10/26 11:13:00;;;;;;;43.97;33.08;;;12.40;99.90;;;;;;6184077;23;20705;-93
2023/10/26 11:15:37;;;;;;;50.33;35.67;;;12.30;99.90;;;;;;6181252;23;20364;-93
2023/10/26 11:18:06;;;;;;;41.67;32.05;;;12.70;99.90;;;;;;6183115;23;20461;-92
2023/10/26 11:20:37;;;;;;;44.38;34.58;;;12.10;99.90;;;;;;6182123;23;20375;-93
2023/10/26 11:23:10;;;;;;;54.10;37.03;;;12.10;99.90;;;;;;6181581;23;20721;-90
2023/10/26 11:25:37;;;;;;;47.75;34.97;;;12.10;99.90;;;;;;6183522;23;20380;-92
2023/10/26 11:28:03;;;;;;;54.53;37.40;;;12.20;99.90;;;;;;6181075;23;20375;-93
2023/10/26 11:30:30;;;;;;;52.58;37.88;;;12.20;99.90;;;;;;6183008;23;20375;-92
2023/10/26 11:32:56;;;;;;;49.70;35.03;;;12.40;99.90;;;;;;6181363;23;20360;-92
2023/10/26 11:35:23;;;;;;;59.43;42.67;;;12.80;99.90;;;;;;6182556;23;20447;-92
2023/10/26 11:38:02;;;;;;;56.78;40.22;;;12.40;99.90;;;;;;6182233;23;20788;-92
2023/10/26 11:40:30;;;;;;;43.95;34.70;;;12.60;99.90;;;;;;6181210;23;20409;-94
2023/10/26 11:42:59;;;;;;;46.22;35.20;;;12.50;99.90;;;;;;6180965;23;20372;-94
2023/10/26 11:45:26;;;;;;;48.55;37.40;;;12.80;99.90;;;;;;6183486;23;20402;-93
2023/10/26 11:47:53;;;;;;;53.30;37.22;;;12.80;99.90;;;;;;6180908;23;20850;-92
2023/10/26 11:50:24;;;;;;;53.53;36.15;;;12.50;99.90;;;;;;6181942;23;20375;-92
2023/10/26 11:52:53;;;;;;;42.73;33.07;;;12.40;99.90;;;;;;6179814;23;20433;-92
2023/10/26 11:55:20;;;;;;;46.85;34.67;;;12.70;99.90;;;;;;6181078;23;20853;-93
2023/10/26 11:57:46;;;;;;;49.97;36.70;;;12.30;99.90;;;;;;6182349;23;20740;-93
2023/10/26 12:00:13;;;;;;;47.15;34.33;;;12.50;99.90;;;;;;6181280;23;20404;-90
2023/10/26 12:02:39;;;;;;;43.67;33.85;;;12.40;99.90;;;;;;6182999;23;20710;-92
2023/10/26 12:05:06;;;;;;;31.20;27.52;;;12.60;99.90;;;;;;6180530;23;20378;-93
2023/10/26 12:07:32;;;;;;;33.00;28.90;;;12.50;99.90;;;;;;6183048;23;20377;-92
2023/10/26 12:09:57;;;;;;;39.25;31.95;;;12.80;99.90;;;;;;6181417;23;20870;-92
2023/10/26 12:12:24;;;;;;;32.00;28.57;;;13.50;99.90;;;;;;6182997;23;20375;-92
2023/10/26 12:14:50;;;;;;;36.27;30.57;;;13.40;99.90;;;;;;6182393;23;20720;-95
2023/10/26 12:17:16;;;;;;;34.72;30.90;;;12.80;99.90;;;;;;6181774;23;20387;-92
2023/10/26 12:19:41;;;;;;;35.17;30.57;;;13.10;99.90;;;;;;6183455;23;20411;-93
2023/10/26 12:22:07;;;;;;;31.97;28.47;;;13.10;99.90;;;;;;6180288;23;20380;-92
2023/10/26 12:24:34;;;;;;;31.05;27.75;;;12.80;99.90;;;;;;6183346;23;20747;-91
2023/10/26 12:27:00;;;;;;;31.95;28.48;;;12.80;99.90;;;;;;6181230;23;20406;-93
2023/10/26 12:29:26;;;;;;;28.70;25.70;;;13.10;99.90;;;;;;6185269;23;20364;-95
2023/10/26 12:31:51;;;;;;;31.47;28.17;;;12.60;99.90;;;;;;6183544;23;20442;-95
2023/10/26 12:34:19;;;;;;;31.15;27.90;;;12.60;99.90;;;;;;6184241;23;20363;-95
2023/10/26 12:36:45;;;;;;;31.33;27.88;;;13.30;99.90;;;;;;6185192;23;20844;-93
2023/10/26 12:39:11;;;;;;;30.95;27.52;;;12.50;99.90;;;;;;6182882;23;20367;-96
2023/10/26 12:41:37;;;;;;;31.33;27.92;;;12.40;99.90;;;;;;6184819;23;20927;-92
2023/10/26 12:44:03;;;;;;;30.33;27.15;;;12.50;99.90;;;;;;6182639;23;20392;-93
2023/10/26 12:46:28;;;;;;;35.08;30.75;;;12.60;99.90;;;;;;6185738;23;20394;-93
2023/10/26 12:48:54;;;;;;;36.50;31.07;;;12.60;99.90;;;;;;6182265;23;21002;-94
2023/10/26 12:51:20;;;;;;;31.80;28.35;;;12.70;99.90;;;;;;6184582;23;20895;-94
2023/10/26 12:53:47;;;;;;;32.45;28.27;;;12.90;99.90;;;;;;6183647;23;20406;-95
2023/10/26 12:56:13;;;;;;;33.63;29.55;;;12.80;99.90;;;;;;6183195;23;20459;-93
2023/10/26 12:58:39;;;;;;;35.13;29.90;;;13.00;99.90;;;;;;6184608;23;20372;-92
2023/10/26 13:01:05;;;;;;;32.05;28.75;;;13.10;99.90;;;;;;6182874;23;20368;-94
2023/10/26 13:03:33;;;;;;;27.98;24.95;;;13.10;99.90;;;;;;6190819;23;20482;-95
2023/10/26 13:05:59;;;;;;;28.55;25.55;;;12.80;99.90;;;;;;6186555;23;20840;-95